Time;durP1;ratioP1;P1;durP2;ratioP2;P2;SDS_P1;SDS_P2;PMS_P1;PMS_P2;Temp;Humidity;BMP_temperature;BMP_pressure;BME280_temperature;BME280_humidity;BME280_pressure;Samples;Min_cycle;Max_cycle;Signal;HPM_P1;HPM_P2
2021/12/29 00:02:05;;;;;;;8.43;3.30;;;;;;;19.00;48.85;100166.16;5111693;28;20046;-69
2021/12/29 00:04:31;;;;;;;12.27;3.83;;;;;;;18.35;49.37;100181.97;5112067;28;20496;-69
2021/12/29 00:06:57;;;;;;;6.60;2.77;;;;;;;18.08;50.51;100188.63;5111354;28;20077;-69
2021/12/29 00:09:23;;;;;;;17.10;3.77;;;;;;;19.13;48.77;100188.34;5109948;28;20402;-69
2021/12/29 00:11:49;;;;;;;8.43;2.73;;;;;;;17.79;51.55;100196.22;5129827;28;20022;-70
2021/12/29 00:14:14;;;;;;;9.60;3.90;;;;;;;18.69;48.59;100181.03;5111182;28;20076;-69
2021/12/29 00:16:40;;;;;;;12.70;3.97;;;;;;;18.19;50.13;100192.50;5112602;28;20023;-69
2021/12/29 00:19:07;;;;;;;11.70;4.30;;;;;;;18.48;48.99;100194.47;5114836;27;20086;-69
2021/12/29 00:21:34;;;;;;;10.20;3.97;;;;;;;19.36;46.85;100214.47;5116321;27;20490;-69
2021/12/29 00:24:00;;;;;;;11.27;4.30;;;;;;;18.28;51.20;100215.84;5115389;27;20018;-69
2021/12/29 00:26:28;;;;;;;7.30;3.23;;;;;;;18.79;49.35;100214.03;5114508;27;20027;-68
2021/12/29 00:28:53;;;;;;;8.63;3.13;;;;;;;19.11;48.88;100222.00;5134097;27;20059;-68
2021/12/29 00:31:19;;;;;;;14.63;5.50;;;;;;;18.35;49.64;100219.84;5115894;27;20031;-69
2021/12/29 00:33:45;;;;;;;17.07;5.23;;;;;;;18.34;50.23;100215.53;5133365;27;20074;-69
2021/12/29 00:36:10;;;;;;;18.17;3.37;;;;;;;18.45;50.38;100223.75;5115630;27;20035;-69
2021/12/29 00:38:36;;;;;;;11.27;3.80;;;;;;;18.09;51.69;100235.31;5131140;27;20034;-69
2021/12/29 00:41:03;;;;;;;13.60;3.10;;;;;;;18.09;49.24;100224.72;5114976;27;20027;-68
2021/12/29 00:43:28;;;;;;;9.90;4.30;;;;;;;17.88;50.54;100233.69;5110259;27;20067;-68
2021/12/29 00:45:54;;;;;;;20.87;4.67;;;;;;;18.40;48.69;100241.66;5129783;27;20474;-67
2021/12/29 00:48:20;;;;;;;9.90;2.97;;;;;;;17.18;52.43;100262.59;5114330;27;20026;-68
2021/12/29 00:50:47;;;;;;;12.90;3.23;;;;;;;18.33;50.35;100250.84;5134197;27;20466;-67
2021/12/29 00:53:12;;;;;;;15.67;5.00;;;;;;;20.13;44.39;100248.03;5114495;27;20023;-68
2021/12/29 00:55:38;;;;;;;11.00;3.50;;;;;;;18.84;46.99;100249.97;5133433;27;20482;-68
2021/12/29 00:58:07;;;;;;;12.20;4.77;;;;;;;18.86;49.25;100254.22;5111370;28;20128;-68
2021/12/29 01:00:36;;;;;;;12.10;4.97;;;;;;;19.42;46.57;100254.72;5130494;27;20388;-68
2021/12/29 01:03:03;;;;;;;10.17;3.47;;;;;;;18.60;48.35;100263.56;5133077;27;20031;-68
2021/12/29 01:05:29;;;;;;;12.17;5.10;;;;;;;18.59;47.42;100278.59;5133597;27;20058;-68
2021/12/29 01:07:54;;;;;;;9.43;3.13;;;;;;;17.80;50.02;100290.47;5133641;27;20027;-68
2021/12/29 01:10:20;;;;;;;8.50;2.93;;;;;;;19.03;46.98;100293.09;5111787;27;20115;-68
2021/12/29 01:12:58;;;;;;;7.20;3.33;;;;;;;19.71;45.94;100299.94;5114944;27;20108;-67
2021/12/29 01:15:31;;;;;;;8.87;3.73;;;;;;;18.89;46.67;100317.66;5132619;27;20457;-68
2021/12/29 01:17:58;;;;;;;11.17;3.17;;;;;;;18.68;46.92;100314.31;5105770;27;20119;-68
2021/12/29 01:20:25;;;;;;;8.73;3.13;;;;;;;19.78;44.91;100311.94;5129077;27;20046;-68
2021/12/29 01:22:51;;;;;;;11.27;3.07;;;;;;;18.48;47.73;100323.28;5112995;27;20035;-68
2021/12/29 01:25:17;;;;;;;11.77;3.83;;;;;;;19.63;45.21;100307.47;5114712;27;20034;-68
2021/12/29 01:27:43;;;;;;;6.47;3.13;;;;;;;19.68;46.04;100316.03;5132870;27;20027;-68
2021/12/29 01:30:10;;;;;;;13.27;3.70;;;;;;;19.46;45.24;100332.28;5132154;27;20435;-68
2021/12/29 01:32:37;;;;;;;9.73;3.63;;;;;;;19.29;46.14;100335.88;5111085;27;20011;-68
2021/12/29 01:35:03;;;;;;;10.10;3.03;;;;;;;18.85;47.33;100346.97;5109430;27;20031;-68
2021/12/29 01:37:29;;;;;;;10.00;2.67;;;;;;;19.83;44.37;100349.66;5112997;27;20033;-68
2021/12/29 01:39:54;;;;;;;7.53;1.83;;;;;;;19.43;46.04;100354.50;5114574;27;20031;-68
2021/12/29 01:42:19;;;;;;;7.90;2.30;;;;;;;19.54;45.69;100355.72;5113339;27;20031;-68
2021/12/29 01:44:45;;;;;;;10.33;2.90;;;;;;;19.61;45.03;100357.09;5132511;27;20027;-68
2021/12/29 01:47:10;;;;;;;6.03;2.17;;;;;;;19.94;44.67;100361.47;5113957;27;20023;-68
2021/12/29 01:49:37;;;;;;;3.07;1.57;;;;;;;19.64;44.98;100362.22;5114197;27;20035;-68
2021/12/29 01:52:11;;;;;;;14.23;2.17;;;;;;;19.20;46.23;100368.16;5108015;27;20022;-68
2021/12/29 01:54:39;;;;;;;6.97;1.60;;;;;;;20.02;44.98;100372.50;5112513;27;20125;-68
2021/12/29 01:57:10;;;;;;;11.77;1.93;;;;;;;20.22;43.54;100374.00;5109419;27;20591;-68
2021/12/29 01:59:35;;;;;;;2.37;1.63;;;;;;;20.25;43.60;100370.31;5124366;27;20027;-68
2021/12/29 02:02:02;;;;;;;6.13;1.80;;;;;;;20.28;43.63;100364.84;5113161;27;20485;-68
2021/12/29 02:04:28;;;;;;;6.53;2.30;;;;;;;21.15;41.81;100374.69;5125580;27;20038;-68
2021/12/29 02:06:53;;;;;;;4.93;2.03;;;;;;;19.63;44.55;100387.00;5132787;27;20027;-68
2021/12/29 02:09:19;;;;;;;5.33;2.27;;;;;;;19.55;45.33;100383.91;5114155;27;20027;-68
2021/12/29 02:11:45;;;;;;;7.27;1.63;;;;;;;19.96;44.78;100388.75;5110289;27;20003;-68
2021/12/29 02:14:11;;;;;;;5.37;1.60;;;;;;;21.15;42.11;100381.84;5110918;27;20034;-68
2021/12/29 02:16:37;;;;;;;5.17;2.10;;;;;;;20.70;42.21;100389.81;5113050;27;20054;-68
2021/12/29 02:19:07;;;;;;;6.53;2.00;;;;;;;21.39;40.76;100390.09;5131166;27;20070;-68
2021/12/29 02:21:33;;;;;;;7.20;1.97;;;;;;;20.91;42.54;100385.03;5114016;27;20433;-68
2021/12/29 02:26:36;;;;;;;7.60;2.23;;;;;;;21.06;42.40;100393.88;5131057;27;20046;-68
2021/12/29 02:29:03;;;;;;;9.17;2.10;;;;;;;20.01;43.66;100397.31;5131722;27;20023;-68
2021/12/29 02:31:29;;;;;;;7.70;2.07;;;;;;;19.33;45.68;100407.13;5132079;27;20035;-68
2021/12/29 02:33:57;;;;;;;8.30;2.13;;;;;;;19.94;44.71;100395.94;5112216;27;20038;-68
2021/12/29 02:36:23;;;;;;;4.20;2.23;;;;;;;20.25;44.02;100396.84;5131734;27;20031;-68
2021/12/29 02:38:54;;;;;;;4.10;2.30;;;;;;;20.61;43.18;100400.97;5131758;27;20019;-68
2021/12/29 02:41:22;;;;;;;11.20;2.10;;;;;;;18.28;47.90;100408.94;5129913;27;20031;-67
2021/12/29 02:43:49;;;;;;;7.00;2.40;;;;;;;19.72;45.03;100420.97;5113155;27;20043;-68
2021/12/29 02:46:16;;;;;;;11.60;3.20;;;;;;;21.16;41.85;100429.56;5128602;27;20076;-67
2021/12/29 02:48:54;;;;;;;6.83;2.60;;;;;;;20.41;43.19;100426.88;5113244;27;20062;-68
2021/12/29 02:51:20;;;;;;;13.77;3.47;;;;;;;19.89;45.31;100424.50;5109312;27;20031;-68
2021/12/29 02:53:45;;;;;;;11.50;4.10;;;;;;;20.55;43.82;100436.69;5108095;27;20045;-68
2021/12/29 02:56:11;;;;;;;13.23;3.20;;;;;;;20.56;43.79;100445.53;5110066;27;20034;-68
2021/12/29 02:58:36;;;;;;;9.53;2.83;;;;;;;19.72;44.62;100438.69;5112093;27;20071;-68
2021/12/29 03:01:08;;;;;;;10.87;2.80;;;;;;;19.35;45.67;100446.81;5111332;27;20402;-68
2021/12/29 03:03:37;;;;;;;12.25;3.15;;;;;;;19.14;46.25;100449.63;5106013;28;20051;-67
2021/12/29 03:06:06;;;;;;;9.50;3.20;;;;;;;19.34;46.81;100458.34;5104512;27;20019;-68
2021/12/29 03:08:32;;;;;;;7.07;3.00;;;;;;;18.82;48.29;100469.78;5108471;27;20030;-68
2021/12/29 03:10:58;;;;;;;8.03;3.27;;;;;;;18.69;47.74;100468.69;5111620;27;20019;-68
2021/12/29 03:13:29;;;;;;;8.73;2.80;;;;;;;19.37;46.53;100466.16;5130401;27;20034;-68
2021/12/29 03:15:56;;;;;;;10.97;3.53;;;;;;;20.09;45.41;100474.66;5108325;27;20079;-68
2021/12/29 03:18:21;;;;;;;12.63;4.40;;;;;;;18.92;47.90;100491.41;5112362;27;20050;-68
2021/12/29 03:20:47;;;;;;;4.10;2.67;;;;;;;20.57;44.71;100471.13;5127301;27;20034;-68
2021/12/29 03:23:14;;;;;;;9.33;3.20;;;;;;;18.14;50.60;100495.09;5103522;27;20391;-68
2021/12/29 03:25:40;;;;;;;9.27;3.00;;;;;;;19.82;45.52;100485.88;5113348;27;20031;-68
2021/12/29 03:28:06;;;;;;;14.53;3.97;;;;;;;19.74;46.10;100481.88;5111423;27;20019;-68
2021/12/29 03:30:35;;;;;;;13.27;3.63;;;;;;;18.58;49.24;100495.69;5111299;27;20023;-68
2021/12/29 03:33:03;;;;;;;12.23;3.47;;;;;;;19.57;45.73;100488.91;5104953;27;20026;-68
2021/12/29 03:35:35;;;;;;;9.87;3.87;;;;;;;19.42;46.97;100501.19;5111962;27;20031;-67
2021/12/29 03:38:03;;;;;;;6.32;3.20;;;;;;;18.54;48.57;100512.66;5111653;27;20038;-68
2021/12/29 03:40:28;;;;;;;10.70;3.80;;;;;;;19.42;46.11;100517.09;5131148;27;20031;-68
2021/12/29 03:42:54;;;;;;;12.03;4.10;;;;;;;19.08;47.14;100526.78;5110544;27;20144;-68
2021/12/29 03:45:20;;;;;;;7.70;3.67;;;;;;;19.52;46.30;100527.22;5130496;27;20023;-67
2021/12/29 03:47:46;;;;;;;9.40;3.23;;;;;;;19.94;45.76;100520.59;5110080;27;20042;-67
2021/12/29 03:50:11;;;;;;;8.53;2.83;;;;;;;18.89;47.28;100533.91;5128955;27;20049;-68
2021/12/29 03:52:37;;;;;;;15.37;3.60;;;;;;;19.29;46.79;100526.63;5107784;27;20042;-68
2021/12/29 03:55:03;;;;;;;11.87;2.80;;;;;;;18.95;47.89;100538.91;5112279;27;20109;-68
2021/12/29 03:57:29;;;;;;;7.20;2.37;;;;;;;19.87;45.46;100527.19;5128808;27;20115;-67
2021/12/29 03:59:54;;;;;;;13.17;3.30;;;;;;;19.76;44.77;100533.03;5130532;27;20047;-67
2021/12/29 04:02:19;;;;;;;12.13;2.60;;;;;;;19.32;46.80;100542.38;5125769;27;20027;-68
2021/12/29 04:04:45;;;;;;;10.40;2.23;;;;;;;19.54;45.92;100528.00;5111926;28;20073;-68
2021/12/29 04:07:10;;;;;;;9.27;2.53;;;;;;;19.31;45.94;100530.03;5111556;28;20088;-67
2021/12/29 04:09:39;;;;;;;7.53;2.50;;;;;;;19.16;46.29;100536.97;5130645;28;20456;-67
2021/12/29 04:12:05;;;;;;;13.67;3.47;;;;;;;20.60;42.99;100535.50;5106529;28;20038;-67
2021/12/29 04:14:30;;;;;;;7.47;2.60;;;;;;;19.37;45.90;100527.09;5112278;28;20027;-67
2021/12/29 04:16:57;;;;;;;8.97;2.30;;;;;;;19.48;46.36;100526.50;5110550;28;20027;-67
2021/12/29 04:19:29;;;;;;;12.77;2.43;;;;;;;19.33;45.42;100528.19;5110110;28;20058;-67
2021/12/29 04:21:57;;;;;;;11.68;3.45;;;;;;;18.45;48.17;100533.34;5099255;28;20034;-67
2021/12/29 04:24:24;;;;;;;7.70;2.10;;;;;;;19.34;46.24;100529.88;5111422;28;20023;-67
2021/12/29 04:26:50;;;;;;;9.00;2.63;;;;;;;19.34;46.13;100527.22;5111002;28;20114;-69
2021/12/29 04:29:15;;;;;;;9.87;2.70;;;;;;;18.42;48.21;100552.00;5112102;28;20164;-69
2021/12/29 04:31:42;;;;;;;6.37;2.00;;;;;;;19.43;45.87;100555.91;5111896;28;20103;-69
2021/12/29 04:34:07;;;;;;;7.87;2.07;;;;;;;19.98;44.83;100557.47;5129096;28;20318;-69
2021/12/29 04:36:33;;;;;;;5.50;1.93;;;;;;;19.13;45.53;100564.47;5107684;28;20023;-69
2021/12/29 04:38:59;;;;;;;12.67;4.13;;;;;;;19.15;46.94;100572.34;5129853;28;20390;-69
2021/12/29 04:41:25;;;;;;;6.97;2.40;;;;;;;19.79;44.58;100565.53;5107613;28;20118;-69
2021/12/29 04:43:51;;;;;;;12.47;2.40;;;;;;;19.16;47.08;100579.34;5106631;28;20159;-69
2021/12/29 04:46:18;;;;;;;8.30;3.00;;;;;;;18.88;47.40;100582.53;5129141;28;20031;-69
2021/12/29 04:48:52;;;;;;;15.17;2.80;;;;;;;19.22;45.53;100583.50;5111741;28;20103;-69
2021/12/29 04:51:24;;;;;;;15.90;2.77;;;;;;;18.98;46.74;100592.56;5110637;28;20027;-69
2021/12/29 04:53:50;;;;;;;8.95;2.65;;;;;;;19.28;46.20;100588.50;5128583;28;20023;-69
2021/12/29 04:56:16;;;;;;;12.00;3.23;;;;;;;19.19;46.69;100594.25;5111549;28;20406;-68
2021/12/29 04:58:42;;;;;;;14.33;3.13;;;;;;;18.88;46.83;100595.78;5111597;28;20027;-68
2021/12/29 05:01:07;;;;;;;11.00;4.03;;;;;;;19.96;45.15;100590.31;5106134;28;20093;-68
2021/12/29 05:03:36;;;;;;;14.67;4.30;;;;;;;21.34;40.77;100591.53;5122656;27;20030;-68
2021/12/29 05:08:29;;;;;;;12.37;4.13;;;;;;;20.30;42.41;100593.81;5133123;27;20424;-68
2021/12/29 05:10:58;;;;;;;10.73;3.87;;;;;;;19.86;44.11;100599.72;5131949;27;20194;-68
2021/12/29 05:13:25;;;;;;;15.87;4.17;;;;;;;21.01;41.46;100595.22;5107925;27;20068;-68
2021/12/29 05:15:51;;;;;;;14.03;4.40;;;;;;;20.66;42.13;100598.03;5131083;27;20031;-69
2021/12/29 05:18:16;;;;;;;6.83;3.70;;;;;;;19.77;43.71;100601.88;5115030;27;20035;-68
2021/12/29 05:20:41;;;;;;;12.33;4.27;;;;;;;19.67;44.15;100600.63;5133510;27;20424;-69
2021/12/29 05:23:07;;;;;;;10.53;2.80;;;;;;;21.71;40.19;100594.69;5113241;27;20027;-68
2021/12/29 05:25:33;;;;;;;12.63;2.97;;;;;;;20.17;42.44;100597.13;5115255;27;20027;-69
2021/12/29 05:27:58;;;;;;;12.70;3.00;;;;;;;20.48;41.67;100590.16;5133279;27;20026;-69
2021/12/29 05:30:24;;;;;;;10.40;3.60;;;;;;;21.73;39.32;100590.13;5132642;27;20037;-69
2021/12/29 05:32:49;;;;;;;14.30;3.30;;;;;;;21.30;39.47;100598.81;5115106;27;20394;-69
2021/12/29 05:35:15;;;;;;;13.40;3.30;;;;;;;20.68;40.70;100598.84;5113568;27;20079;-69
2021/12/29 05:37:42;;;;;;;17.17;3.57;;;;;;;21.14;40.39;100596.22;5114333;27;20196;-69
2021/12/29 05:40:08;;;;;;;11.57;3.30;;;;;;;21.01;40.87;100600.53;5126221;27;20307;-69
2021/12/29 05:42:34;;;;;;;13.77;3.30;;;;;;;21.75;38.84;100590.91;5132763;27;20058;-68
2021/12/29 05:45:11;;;;;;;12.07;3.37;;;;;;;21.92;38.52;100597.00;5112837;27;20509;-69
2021/12/29 05:47:37;;;;;;;12.37;3.27;;;;;;;22.39;37.79;100601.16;5114757;27;20083;-69
2021/12/29 05:50:08;;;;;;;13.63;3.20;;;;;;;21.75;39.29;100613.97;5105679;28;20509;-68
2021/12/29 05:52:34;;;;;;;10.60;3.33;;;;;;;20.33;41.34;100620.19;5123273;27;20079;-68
2021/12/29 05:54:59;;;;;;;11.03;3.90;;;;;;;19.98;42.37;100618.50;5132413;27;20027;-68
2021/12/29 05:57:25;;;;;;;10.40;2.77;;;;;;;21.22;40.62;100614.38;5113543;27;20038;-68
2021/12/29 05:59:50;;;;;;;14.20;3.37;;;;;;;21.22;40.68;100613.53;5132518;27;20088;-68
2021/12/29 06:02:16;;;;;;;9.73;3.20;;;;;;;20.30;42.32;100630.97;5132362;27;20063;-68
2021/12/29 06:04:41;;;;;;;8.83;3.33;;;;;;;19.69;43.36;100635.00;5132094;27;20030;-68
2021/12/29 06:07:07;;;;;;;6.63;3.00;;;;;;;21.14;40.77;100633.44;5132546;27;20554;-68
2021/12/29 06:09:33;;;;;;;11.17;3.97;;;;;;;21.64;39.35;100633.25;5108595;28;20055;-68
2021/12/29 06:11:58;;;;;;;8.57;3.63;;;;;;;21.54;39.10;100635.56;5110391;27;20102;-68
2021/12/29 06:14:24;;;;;;;10.70;3.77;;;;;;;21.74;38.52;100631.72;5113088;28;20542;-68
2021/12/29 06:16:49;;;;;;;11.63;3.60;;;;;;;21.21;40.79;100638.38;5113820;27;20110;-68
2021/12/29 06:19:14;;;;;;;10.50;4.07;;;;;;;21.64;38.52;100631.44;5131024;27;20047;-68
2021/12/29 06:21:40;;;;;;;8.03;2.80;;;;;;;21.61;38.64;100630.75;5113809;27;20403;-68
2021/12/29 06:24:07;;;;;;;11.10;3.83;;;;;;;22.13;38.50;100632.06;5111394;27;20495;-68
2021/12/29 06:26:33;;;;;;;10.43;3.60;;;;;;;22.03;38.04;100637.09;5106168;27;20023;-68
2021/12/29 06:28:58;;;;;;;10.43;3.40;;;;;;;21.43;38.87;100633.53;5101179;27;20091;-68
2021/12/29 06:31:24;;;;;;;9.13;3.27;;;;;;;21.52;39.40;100633.00;5110133;27;20487;-68
2021/12/29 06:33:49;;;;;;;5.90;3.97;;;;;;;22.23;38.31;100641.19;5104695;28;20487;-68
2021/12/29 06:36:14;;;;;;;8.27;3.57;;;;;;;21.66;39.35;100639.31;5128072;27;20023;-68
2021/12/29 06:38:40;;;;;;;9.60;3.40;;;;;;;22.04;38.51;100638.81;5113593;27;20053;-69
2021/12/29 06:41:05;;;;;;;7.53;3.73;;;;;;;20.77;40.67;100646.16;5111208;27;20392;-68
2021/12/29 06:43:30;;;;;;;11.53;4.50;;;;;;;21.55;39.32;100641.75;5129649;27;20064;-68
2021/12/29 06:45:56;;;;;;;18.10;4.33;;;;;;;21.47;39.13;100656.34;5112211;27;20035;-68
2021/12/29 06:48:21;;;;;;;9.60;3.80;;;;;;;21.80;38.50;100663.28;5113713;27;20239;-68
2021/12/29 06:50:47;;;;;;;10.17;4.10;;;;;;;21.56;39.44;100656.78;5107195;27;20037;-68
2021/12/29 06:53:12;;;;;;;8.23;3.83;;;;;;;21.19;38.99;100657.91;5111159;27;20019;-68
2021/12/29 06:55:39;;;;;;;7.73;3.60;;;;;;;22.06;37.56;100663.50;5111589;27;20470;-68
2021/12/29 06:58:05;;;;;;;14.33;4.50;;;;;;;22.43;37.16;100661.25;5110518;27;20508;-68
2021/12/29 07:00:30;;;;;;;12.57;4.53;;;;;;;22.01;38.02;100660.28;5129792;27;20024;-68
2021/12/29 07:02:55;;;;;;;9.47;4.03;;;;;;;21.93;37.75;100659.91;5110801;27;20031;-68
2021/12/29 07:05:21;;;;;;;8.23;3.40;;;;;;;21.49;38.65;100675.69;5111440;27;20469;-68
2021/12/29 07:07:49;;;;;;;9.13;3.97;;;;;;;20.59;40.47;100678.97;5113400;27;20026;-68
2021/12/29 07:10:14;;;;;;;8.30;3.33;;;;;;;21.27;39.35;100683.22;5113042;27;20027;-68
2021/12/29 07:12:40;;;;;;;5.60;3.63;;;;;;;21.41;38.23;100679.75;5113917;27;20607;-68
2021/12/29 07:15:06;;;;;;;8.73;3.57;;;;;;;22.03;37.47;100680.50;5112904;27;20297;-68
2021/12/29 07:17:31;;;;;;;6.53;3.17;;;;;;;22.47;35.87;100680.56;5111827;27;20050;-68
2021/12/29 07:19:56;;;;;;;5.83;3.10;;;;;;;21.85;37.50;100697.59;5100899;27;20398;-69
2021/12/29 07:22:23;;;;;;;8.80;2.63;;;;;;;21.90;37.09;100699.97;5102608;27;20483;-70
2021/12/29 07:24:48;;;;;;;7.50;3.13;;;;;;;22.49;35.96;100702.63;5097235;27;20443;-69
2021/12/29 07:27:14;;;;;;;8.60;2.90;;;;;;;21.62;36.89;100707.78;5106778;27;20114;-69
2021/12/29 07:29:39;;;;;;;6.97;3.47;;;;;;;22.08;36.57;100701.53;5109246;27;20089;-68
2021/12/29 07:32:05;;;;;;;8.47;3.40;;;;;;;22.11;36.60;100698.69;5106700;28;20024;-69
2021/12/29 07:34:30;;;;;;;8.47;3.13;;;;;;;22.22;36.88;100705.19;5110401;27;20023;-68
2021/12/29 07:36:56;;;;;;;7.50;3.10;;;;;;;22.62;35.94;100703.56;5103080;28;20046;-68
2021/12/29 07:39:23;;;;;;;6.33;3.17;;;;;;;22.77;35.38;100707.09;5110920;27;20032;-68
2021/12/29 07:41:49;;;;;;;9.10;3.60;;;;;;;22.63;35.75;100705.28;5112179;27;20031;-68
2021/12/29 07:44:16;;;;;;;7.53;3.63;;;;;;;22.76;35.57;100710.69;5122008;27;20038;-68
2021/12/29 07:46:44;;;;;;;6.53;3.53;;;;;;;23.08;35.35;100694.47;5110048;27;20062;-68
2021/12/29 07:49:09;;;;;;;9.40;3.80;;;;;;;22.52;35.74;100692.66;5126609;27;20027;-69
2021/12/29 07:51:34;;;;;;;7.33;4.67;;;;;;;22.67;36.05;100684.66;5124399;27;20540;-68
2021/12/29 07:54:00;;;;;;;10.93;3.90;;;;;;;22.50;36.19;100686.56;5110697;27;20493;-68
2021/12/29 07:56:26;;;;;;;5.43;3.10;;;;;;;22.61;36.28;100685.03;5106471;27;20026;-68
2021/12/29 07:58:52;;;;;;;4.87;3.27;;;;;;;22.67;36.12;100690.00;5104889;27;20020;-68
2021/12/29 08:01:17;;;;;;;6.90;4.20;;;;;;;22.50;36.42;100689.25;5125982;27;20114;-68
2021/12/29 08:03:43;;;;;;;6.97;3.60;;;;;;;22.57;36.31;100694.16;5128653;27;20394;-68
2021/12/29 08:06:08;;;;;;;10.63;3.80;;;;;;;22.31;36.90;100705.47;5108976;28;20034;-68
2021/12/29 08:08:34;;;;;;;7.30;3.40;;;;;;;21.70;37.93;100688.72;5110191;28;20026;-68
2021/12/29 08:10:59;;;;;;;9.83;4.13;;;;;;;22.19;36.66;100685.75;5124769;28;20050;-68
2021/12/29 08:13:25;;;;;;;11.97;4.23;;;;;;;21.47;38.46;100693.56;5111317;28;20024;-68
2021/12/29 08:15:50;;;;;;;8.87;3.77;;;;;;;22.20;36.78;100703.47;5110360;28;20039;-68
2021/12/29 08:18:16;;;;;;;11.47;4.03;;;;;;;22.67;36.27;100695.31;5109986;28;20054;-68
2021/12/29 08:20:42;;;;;;;10.07;4.00;;;;;;;22.46;36.30;100702.81;5111168;28;20027;-68
2021/12/29 08:23:09;;;;;;;10.83;4.27;;;;;;;22.40;36.21;100712.06;5110369;28;20147;-68
2021/12/29 08:25:35;;;;;;;11.13;4.70;;;;;;;21.86;37.59;100710.81;5109239;28;20027;-68
2021/12/29 08:28:01;;;;;;;6.80;4.10;;;;;;;21.84;37.78;100707.38;5118061;28;20440;-68
2021/12/29 08:30:27;;;;;;;14.13;4.90;;;;;;;22.15;37.10;100700.22;5120083;28;20039;-68
2021/12/29 08:32:52;;;;;;;11.93;4.77;;;;;;;21.84;37.48;100695.88;5110477;28;20023;-68
2021/12/29 08:35:18;;;;;;;13.40;4.80;;;;;;;21.01;38.77;100698.84;5127441;28;20023;-68
2021/12/29 08:37:44;;;;;;;9.50;5.70;;;;;;;21.27;38.46;100701.81;5107405;27;20031;-68
2021/12/29 08:40:11;;;;;;;9.80;4.70;;;;;;;21.75;37.42;100713.25;5133079;27;20402;-68
2021/12/29 08:42:37;;;;;;;9.90;5.20;;;;;;;21.64;37.50;100715.69;5114221;27;20440;-68
2021/12/29 08:45:08;;;;;;;7.90;4.27;;;;;;;20.96;38.70;100719.47;5134567;27;20034;-68
2021/12/29 08:47:33;;;;;;;16.30;4.60;;;;;;;21.45;38.44;100716.72;5116440;27;20069;-68
2021/12/29 08:49:59;;;;;;;7.73;3.87;;;;;;;20.80;39.40;100719.44;5115033;27;20062;-68
2021/12/29 08:52:24;;;;;;;19.13;4.67;;;;;;;21.27;38.33;100718.63;5108679;27;20153;-68
2021/12/29 08:54:50;;;;;;;13.00;4.10;;;;;;;21.59;37.47;100723.06;5111470;28;20535;-68
2021/12/29 08:57:15;;;;;;;8.20;4.00;;;;;;;21.82;37.65;100709.28;5101540;27;20447;-68
2021/12/29 08:59:41;;;;;;;10.90;4.47;;;;;;;21.51;37.67;100715.50;5109110;27;20031;-68
2021/12/29 09:02:07;;;;;;;12.03;3.97;;;;;;;20.91;39.17;100718.88;5105011;27;20075;-68
2021/12/29 09:04:33;;;;;;;12.93;5.33;;;;;;;20.73;39.77;100708.34;5114246;27;20075;-68
2021/12/29 09:06:58;;;;;;;14.73;4.53;;;;;;;20.74;39.41;100694.09;5106514;27;20047;-68
2021/12/29 09:09:23;;;;;;;12.83;5.07;;;;;;;20.87;39.14;100694.28;5113635;27;20082;-68
2021/12/29 09:11:49;;;;;;;10.23;5.27;;;;;;;21.00;39.13;100697.97;5131892;27;20042;-68
2021/12/29 09:14:14;;;;;;;8.87;4.17;;;;;;;20.55;39.72;100693.34;5110222;27;20031;-68
2021/12/29 09:16:40;;;;;;;10.27;4.27;;;;;;;20.42;39.78;100699.31;5106472;28;20028;-68
2021/12/29 09:19:11;;;;;;;12.80;5.80;;;;;;;20.56;39.43;100695.06;5105418;27;20048;-68
2021/12/29 09:21:38;;;;;;;10.40;4.97;;;;;;;20.03;41.17;100711.09;5107070;27;20510;-68
2021/12/29 09:24:04;;;;;;;22.17;11.20;;;;;;;20.11;40.45;100695.66;5112304;27;20475;-68
2021/12/29 09:26:29;;;;;;;6.47;4.77;;;;;;;19.91;41.23;100696.66;5131513;27;20037;-68
2021/12/29 09:28:54;;;;;;;9.87;4.33;;;;;;;19.69;41.71;100694.22;5109679;27;20635;-68
2021/12/29 09:31:20;;;;;;;11.13;7.33;;;;;;;19.07;42.92;100693.72;5111236;27;20355;-68
2021/12/29 09:33:46;;;;;;;6.90;4.80;;;;;;;20.33;40.04;100689.19;5130356;27;20030;-68
2021/12/29 09:36:12;;;;;;;8.77;4.33;;;;;;;19.64;41.90;100704.19;5104674;27;20035;-68
2021/12/29 09:38:40;;;;;;;11.23;5.10;;;;;;;20.30;39.95;100699.97;5111611;27;20784;-68
2021/12/29 09:41:08;;;;;;;8.03;4.33;;;;;;;20.05;40.73;100706.56;5097193;27;20034;-69
2021/12/29 09:43:35;;;;;;;8.63;4.80;;;;;;;20.02;40.67;100712.03;5111565;27;20034;-68
2021/12/29 09:46:00;;;;;;;11.63;5.93;;;;;;;19.62;41.55;100703.44;5109251;28;20501;-68
2021/12/29 09:48:26;;;;;;;9.93;5.20;;;;;;;19.72;40.86;100706.47;5124052;27;20019;-68
2021/12/29 09:50:52;;;;;;;14.10;4.30;;;;;;;19.65;41.45;100697.97;5100781;27;20036;-68
2021/12/29 09:53:18;;;;;;;8.67;4.80;;;;;;;19.76;41.95;100689.47;5101886;27;20015;-68
2021/12/29 09:55:45;;;;;;;9.87;4.77;;;;;;;19.89;41.17;100687.06;5108872;27;20337;-68
2021/12/29 09:58:11;;;;;;;8.60;3.97;;;;;;;19.97;40.91;100679.59;5129075;27;20058;-68
2021/12/29 10:00:47;;;;;;;10.70;5.23;;;;;;;19.78;41.42;100685.81;5120948;27;20042;-68
2021/12/29 10:03:15;;;;;;;7.77;4.47;;;;;;;19.65;41.67;100687.34;5106925;27;20118;-68
2021/12/29 10:05:43;;;;;;;10.33;5.27;;;;;;;20.40;39.63;100669.38;5130763;27;20123;-67
2021/12/29 10:08:11;;;;;;;11.40;5.17;;;;;;;20.11;40.58;100663.81;5129991;27;20023;-67
2021/12/29 10:10:43;;;;;;;6.83;4.13;;;;;;;20.26;40.08;100656.81;5110608;27;20111;-68
2021/12/29 10:13:09;;;;;;;10.53;4.80;;;;;;;19.66;41.75;100659.91;5128984;27;20054;-68
2021/12/29 10:15:46;;;;;;;7.57;3.90;;;;;;;20.06;41.33;100649.94;5110162;27;20023;-70
2021/12/29 10:18:16;;;;;;;10.50;5.33;;;;;;;21.03;38.83;100635.81;5107660;27;20054;-68
2021/12/29 10:20:44;;;;;;;6.63;4.20;;;;;;;20.63;40.10;100643.34;5127582;27;20483;-70
2021/12/29 10:23:09;;;;;;;11.93;4.50;;;;;;;20.35;40.29;100650.16;5106262;27;20034;-68
2021/12/29 10:25:35;;;;;;;8.03;4.53;;;;;;;20.89;39.63;100643.72;5105512;27;20035;-68
2021/12/29 10:28:01;;;;;;;8.23;5.10;;;;;;;20.65;39.44;100642.31;5130122;27;20035;-68
2021/12/29 10:30:30;;;;;;;7.17;4.43;;;;;;;20.67;39.81;100639.56;5126119;27;20019;-68
2021/12/29 10:32:58;;;;;;;9.77;5.20;;;;;;;20.45;39.99;100640.75;5123746;27;20022;-68
2021/12/29 10:35:33;;;;;;;8.93;5.07;;;;;;;20.02;40.77;100643.06;5101695;27;20039;-68
2021/12/29 10:38:18;;;;;;;11.73;5.13;;;;;;;19.86;41.54;100642.16;5124751;27;21505;-70
2021/12/29 10:40:44;;;;;;;11.60;6.17;;;;;;;19.80;42.03;100646.84;5132939;27;20035;-70
2021/12/29 10:43:11;;;;;;;13.60;5.50;;;;;;;20.62;39.94;100644.28;5106840;28;20035;-70
2021/12/29 10:45:40;;;;;;;13.13;5.27;;;;;;;19.39;41.43;100655.06;5126590;27;20076;-70
2021/12/29 10:48:20;;;;;;;8.30;5.40;;;;;;;19.49;42.29;100666.94;5098725;27;20120;-70
2021/12/29 10:51:07;;;;;;;9.10;5.63;;;;;;;20.79;40.20;100665.50;5124265;27;20105;-68
2021/12/29 10:53:36;;;;;;;10.67;5.33;;;;;;;20.22;41.56;100660.56;5102699;27;20724;-68
2021/12/29 10:56:03;;;;;;;10.63;5.80;;;;;;;19.57;42.16;100673.63;5112731;27;20023;-69
2021/12/29 10:58:32;;;;;;;16.23;6.53;;;;;;;19.09;43.00;100668.03;5129870;27;20026;-69
2021/12/29 11:01:05;;;;;;;12.43;5.97;;;;;;;19.40;42.40;100667.38;5130317;27;20421;-68
2021/12/29 11:03:32;;;;;;;17.50;6.47;;;;;;;19.61;42.00;100661.94;5100436;27;20020;-69
2021/12/29 11:06:00;;;;;;;11.73;5.77;;;;;;;21.10;39.36;100655.81;5128141;27;20026;-70
2021/12/29 11:08:47;;;;;;;13.60;6.80;;;;;;;20.88;39.72;100631.38;5121449;27;20015;-69
2021/12/29 11:11:13;;;;;;;14.37;6.47;;;;;;;20.83;38.80;100624.53;5107068;27;20054;-69
2021/12/29 11:13:38;;;;;;;13.33;6.33;;;;;;;20.59;40.50;100612.59;5099764;27;20057;-69
2021/12/29 11:16:05;;;;;;;13.63;6.67;;;;;;;21.66;37.85;100602.09;5112232;27;20513;-69
2021/12/29 11:19:00;;;;;;;14.37;6.70;;;;;;;21.07;38.58;100610.78;5099763;28;20532;-69
2021/12/29 11:21:28;;;;;;;11.83;6.83;;;;;;;20.22;40.88;100618.09;5085677;27;20046;-68
2021/12/29 11:23:54;;;;;;;13.03;6.57;;;;;;;20.65;40.04;100609.63;5105277;27;20027;-69
2021/12/29 11:26:30;;;;;;;15.40;6.83;;;;;;;21.12;39.02;100600.75;5110677;27;20019;-68